createdAt,value
2023-05-16T00:01:09.369Z,17.17
2023-05-16T00:03:39.584Z,16.40
2023-05-16T00:06:07.176Z,11.07
2023-05-16T00:08:34.840Z,13.18
2023-05-16T00:11:01.995Z,16.67
2023-05-16T00:13:30.549Z,9.35
2023-05-16T00:16:00.361Z,20.83
2023-05-16T00:18:27.647Z,20.90
2023-05-16T00:20:55.492Z,15.88
2023-05-16T00:23:22.763Z,14.25
2023-05-16T00:25:50.462Z,16.05
2023-05-16T00:28:17.799Z,24.65
2023-05-16T00:30:45.540Z,20.60
2023-05-16T00:33:14.724Z,16.92
2023-05-16T00:35:42.128Z,28.20
2023-05-16T00:38:09.665Z,29.92
2023-05-16T00:40:37.805Z,23.65
2023-05-16T00:43:05.230Z,15.18
2023-05-16T00:45:32.599Z,18.65
2023-05-16T00:48:01.062Z,18.17
2023-05-16T00:50:28.953Z,15.63
2023-05-16T00:52:56.965Z,18.02
2023-05-16T00:55:24.740Z,16.95
2023-05-16T00:57:52.900Z,14.57
2023-05-16T01:00:20.521Z,14.15
2023-05-16T01:02:48.330Z,15.48
2023-05-16T01:05:16.106Z,16.30
2023-05-16T01:07:44.048Z,6.80
2023-05-16T01:10:12.011Z,12.35
2023-05-16T01:13:10.260Z,22.35
2023-05-16T01:16:06.703Z,18.77
2023-05-16T01:18:47.332Z,17.13
2023-05-16T01:21:32.567Z,13.02
2023-05-16T01:24:09.289Z,11.25
2023-05-16T01:26:38.953Z,10.73
2023-05-16T01:29:08.064Z,12.77
2023-05-16T01:31:36.067Z,22.67
2023-05-16T01:34:03.514Z,17.88
2023-05-16T01:36:55.989Z,12.40
2023-05-16T01:39:59.502Z,14.95
2023-05-16T01:42:32.631Z,16.77
2023-05-16T01:45:24.843Z,15.93
2023-05-16T01:48:10.756Z,16.25
2023-05-16T01:50:47.870Z,10.63
2023-05-16T01:53:20.782Z,14.70
2023-05-16T01:55:51.893Z,22.25
2023-05-16T01:58:25.033Z,14.52
2023-05-16T02:01:01.241Z,14.82
2023-05-16T02:03:29.024Z,17.70
2023-05-16T02:05:56.816Z,18.63
2023-05-16T02:08:26.380Z,16.48
2023-05-16T02:10:54.338Z,12.00
2023-05-16T02:13:22.080Z,11.93
2023-05-16T02:15:49.722Z,19.70
2023-05-16T02:18:18.881Z,17.58
2023-05-16T02:20:46.208Z,10.32
2023-05-16T02:23:13.537Z,12.93
2023-05-16T02:25:40.820Z,13.90
2023-05-16T02:28:10.574Z,15.18
2023-05-16T02:30:38.007Z,20.67
2023-05-16T02:33:05.483Z,18.83
2023-05-16T02:35:32.919Z,14.40
2023-05-16T02:38:00.847Z,11.98
2023-05-16T02:40:28.198Z,14.63
2023-05-16T02:42:56.858Z,16.98
2023-05-16T02:45:24.218Z,20.27
2023-05-16T02:47:51.586Z,12.90
2023-05-16T02:50:19.473Z,17.98
2023-05-16T02:52:47.330Z,15.85
2023-05-16T02:57:44.944Z,14.02
2023-05-16T03:00:15.710Z,12.82
2023-05-16T03:02:45.499Z,13.07
2023-05-16T03:05:13.456Z,13.43
2023-05-16T03:07:41.379Z,20.60
2023-05-16T03:10:09.163Z,15.60
2023-05-16T03:12:36.494Z,10.98
2023-05-16T03:15:04.341Z,9.75
2023-05-16T03:17:31.959Z,14.27
2023-05-16T03:19:59.277Z,16.17
2023-05-16T03:22:26.597Z,9.00
2023-05-16T03:24:53.994Z,13.80
2023-05-16T03:27:23.268Z,16.98
2023-05-16T03:29:50.617Z,14.80
2023-05-16T03:32:18.029Z,13.95
2023-05-16T03:34:46.867Z,11.80
2023-05-16T03:37:16.171Z,13.55
2023-05-16T03:39:43.829Z,19.33
2023-05-16T03:42:11.976Z,11.80
2023-05-16T03:44:39.580Z,19.13
2023-05-16T03:47:07.003Z,11.80
2023-05-16T03:49:34.326Z,22.92
2023-05-16T03:52:01.813Z,19.50
2023-05-16T03:54:29.143Z,20.23
2023-05-16T03:56:56.528Z,13.52
2023-05-16T03:59:24.500Z,26.02
2023-05-16T04:01:51.867Z,10.57
2023-05-16T04:04:19.273Z,18.63
2023-05-16T04:06:46.690Z,15.30
2023-05-16T04:09:14.191Z,17.10
2023-05-16T04:11:41.459Z,18.13
2023-05-16T04:14:08.807Z,10.45
2023-05-16T04:16:36.163Z,16.08
2023-05-16T04:19:03.963Z,15.73
2023-05-16T04:21:32.005Z,27.42
2023-05-16T04:23:59.794Z,13.98
2023-05-16T04:26:27.529Z,10.95
2023-05-16T04:28:54.806Z,18.60
2023-05-16T04:31:24.563Z,11.85
2023-05-16T04:33:53.008Z,20.27
2023-05-16T04:36:21.384Z,17.08
2023-05-16T04:38:48.682Z,23.70
2023-05-16T04:41:16.590Z,17.10
2023-05-16T04:43:44.678Z,12.40
2023-05-16T04:46:12.513Z,15.27
2023-05-16T04:48:39.795Z,22.52
2023-05-16T04:51:07.403Z,11.48
2023-05-16T04:53:34.827Z,18.35
2023-05-16T04:56:02.695Z,15.75
2023-05-16T04:58:30.114Z,20.65
2023-05-16T05:00:57.892Z,19.05
2023-05-16T05:03:25.326Z,15.15
2023-05-16T05:05:52.625Z,22.95
2023-05-16T05:08:19.923Z,18.70
2023-05-16T05:10:47.738Z,25.35
2023-05-16T05:13:15.266Z,14.05
2023-05-16T05:15:42.600Z,19.65
2023-05-16T05:18:10.292Z,28.92
2023-05-16T05:20:38.041Z,15.20
2023-05-16T05:23:05.555Z,18.80
2023-05-16T05:25:35.875Z,12.07
2023-05-16T05:28:04.773Z,19.60
2023-05-16T05:30:32.181Z,12.18
2023-05-16T05:32:59.562Z,12.38
2023-05-16T05:35:27.276Z,24.83
2023-05-16T05:37:54.721Z,14.88
2023-05-16T05:40:22.129Z,15.75
2023-05-16T05:42:49.394Z,18.85
2023-05-16T05:45:16.859Z,10.80
2023-05-16T05:47:44.484Z,14.77
2023-05-16T05:50:13.810Z,15.57
2023-05-16T05:52:41.653Z,16.02
2023-05-16T05:55:09.217Z,12.70
2023-05-16T05:57:36.545Z,23.67
2023-05-16T06:00:05.332Z,9.65
2023-05-16T06:02:36.013Z,11.65
2023-05-16T06:05:03.592Z,15.05
2023-05-16T06:07:31.318Z,8.93
2023-05-16T06:09:58.653Z,14.65
2023-05-16T06:12:25.912Z,10.70
2023-05-16T06:14:53.256Z,16.67
2023-05-16T06:17:20.726Z,14.85
2023-05-16T06:19:48.048Z,12.85
2023-05-16T06:22:15.710Z,12.68
2023-05-16T06:24:43.886Z,22.60
2023-05-16T06:27:11.805Z,17.77
2023-05-16T06:29:39.391Z,16.13
2023-05-16T06:32:07.389Z,14.48
2023-05-16T06:34:34.714Z,44.75
2023-05-16T06:37:03.782Z,25.95
2023-05-16T06:39:31.291Z,12.20
2023-05-16T06:41:58.891Z,33.22
2023-05-16T06:44:27.762Z,23.30
2023-05-16T06:46:55.054Z,17.05
2023-05-16T06:49:24.033Z,24.48
2023-05-16T06:51:52.544Z,15.48
2023-05-16T06:54:20.179Z,13.07
2023-05-16T06:56:47.533Z,14.93
2023-05-16T06:59:15.698Z,12.82
2023-05-16T07:01:43.087Z,21.10
2023-05-16T07:04:10.537Z,17.85
2023-05-16T07:06:38.196Z,20.38
2023-05-16T07:09:05.854Z,14.50
2023-05-16T07:11:34.551Z,21.67
2023-05-16T07:14:01.901Z,22.15
2023-05-16T07:16:29.373Z,19.38
2023-05-16T07:18:57.046Z,15.80
2023-05-16T07:21:24.677Z,15.00
2023-05-16T07:23:52.031Z,18.00
2023-05-16T07:26:22.426Z,19.25
2023-05-16T07:28:53.374Z,18.75
2023-05-16T07:31:20.876Z,20.95
2023-05-16T07:33:49.225Z,17.58
2023-05-16T07:36:17.585Z,15.68
2023-05-16T07:38:47.046Z,24.52
2023-05-16T07:41:14.675Z,17.70
2023-05-16T07:43:42.299Z,14.73
2023-05-16T07:46:11.172Z,15.55
2023-05-16T07:48:38.647Z,14.88
2023-05-16T07:51:06.229Z,15.50
2023-05-16T07:53:33.879Z,10.52
2023-05-16T07:56:01.321Z,12.80
2023-05-16T07:58:29.040Z,16.13
2023-05-16T08:00:56.483Z,8.93
2023-05-16T08:03:24.170Z,19.38
2023-05-16T08:05:51.979Z,16.08
2023-05-16T08:08:19.513Z,24.20
2023-05-16T08:10:47.273Z,16.55
2023-05-16T08:13:14.630Z,10.65
2023-05-16T08:15:42.830Z,10.65
2023-05-16T08:18:15.104Z,15.07
2023-05-16T08:20:42.786Z,14.70
2023-05-16T08:23:10.418Z,22.60
2023-05-16T08:25:38.055Z,13.07
2023-05-16T08:28:05.605Z,10.23
2023-05-16T08:30:32.996Z,21.40
2023-05-16T08:33:04.814Z,12.95
2023-05-16T08:35:32.798Z,38.58
2023-05-16T08:38:00.481Z,13.50
2023-05-16T08:40:29.294Z,13.77
2023-05-16T08:42:56.763Z,17.02
2023-05-16T08:45:24.712Z,12.20
2023-05-16T08:47:55.809Z,16.02
2023-05-16T08:50:25.162Z,15.15
2023-05-16T08:52:53.751Z,13.63
2023-05-16T08:55:22.338Z,18.15
2023-05-16T08:57:53.596Z,9.63
2023-05-16T09:00:22.537Z,18.08
2023-05-16T09:02:50.280Z,14.70
2023-05-16T09:05:18.552Z,12.35
2023-05-16T09:07:46.225Z,5.80
2023-05-16T09:10:14.106Z,18.40
2023-05-16T09:12:42.413Z,8.90
2023-05-16T09:15:11.420Z,17.23
2023-05-16T09:17:43.772Z,11.40
2023-05-16T09:20:16.530Z,9.23
2023-05-16T09:22:57.837Z,7.82
2023-05-16T09:25:31.076Z,13.13
2023-05-16T09:28:02.391Z,7.25
2023-05-16T09:30:31.894Z,7.38
2023-05-16T09:32:59.734Z,8.10
2023-05-16T09:37:58.304Z,9.95
2023-05-16T09:40:25.769Z,11.98
2023-05-16T09:43:04.403Z,12.93
2023-05-16T09:45:34.292Z,8.63
2023-05-16T09:48:10.173Z,11.82
2023-05-16T09:50:38.119Z,8.32
2023-05-16T09:53:06.116Z,4.75
2023-05-16T09:55:33.901Z,13.75
2023-05-16T09:58:01.779Z,8.90
2023-05-16T10:00:33.760Z,8.68
2023-05-16T10:03:05.261Z,13.80
2023-05-16T10:05:34.693Z,14.02
2023-05-16T10:08:03.949Z,15.55
2023-05-16T10:10:34.954Z,9.60
2023-05-16T10:13:04.017Z,14.68
2023-05-16T10:15:31.839Z,10.40
2023-05-16T10:18:00.732Z,15.95
2023-05-16T10:20:28.786Z,9.23
2023-05-16T10:22:58.136Z,8.70
2023-05-16T10:25:41.334Z,8.00
2023-05-16T10:28:12.891Z,9.50
2023-05-16T10:30:45.701Z,12.77
2023-05-16T10:33:17.961Z,14.00
2023-05-16T10:35:46.691Z,10.95
2023-05-16T10:38:17.441Z,14.25
2023-05-16T10:40:45.595Z,10.52
2023-05-16T10:43:27.094Z,7.68
2023-05-16T10:46:02.835Z,13.48
2023-05-16T10:48:38.892Z,12.52
2023-05-16T10:51:33.609Z,17.75
2023-05-16T10:54:10.152Z,8.10
2023-05-16T10:56:37.925Z,12.65
2023-05-16T10:59:22.029Z,9.10
2023-05-16T11:01:53.963Z,12.70
2023-05-16T11:04:21.839Z,11.20
2023-05-16T11:06:53.734Z,9.35
2023-05-16T11:09:23.565Z,17.98
2023-05-16T11:12:04.106Z,7.65
2023-05-16T11:14:34.300Z,8.48
2023-05-16T11:17:13.898Z,6.80
2023-05-16T11:19:47.233Z,11.75
2023-05-16T11:22:23.768Z,7.40
2023-05-16T11:24:54.116Z,12.75
2023-05-16T11:27:32.572Z,7.82
2023-05-16T11:30:05.830Z,8.50
2023-05-16T11:32:44.482Z,7.30
2023-05-16T11:35:25.514Z,6.40
2023-05-16T11:37:53.711Z,8.00
2023-05-16T11:40:22.224Z,7.22
2023-05-16T11:42:49.776Z,9.32
2023-05-16T11:45:26.024Z,8.05
2023-05-16T11:47:53.636Z,8.50
2023-05-16T11:50:23.549Z,17.10
2023-05-16T11:52:56.390Z,10.23
2023-05-16T11:55:40.422Z,11.98
2023-05-16T11:58:09.627Z,8.65
2023-05-16T12:00:37.102Z,9.70
2023-05-16T12:03:06.387Z,7.97
2023-05-16T12:05:35.527Z,8.27
2023-05-16T12:08:05.793Z,10.52
2023-05-16T12:10:36.404Z,8.38
2023-05-16T12:13:04.521Z,8.27
2023-05-16T12:15:32.321Z,10.38
2023-05-16T12:18:00.216Z,7.63
2023-05-16T12:20:27.642Z,13.18
2023-05-16T12:22:58.294Z,5.78
2023-05-16T12:25:32.001Z,10.90
2023-05-16T12:28:01.717Z,14.65
2023-05-16T12:30:31.462Z,10.40
2023-05-16T12:33:18.028Z,4.40
2023-05-16T12:35:47.303Z,10.57
2023-05-16T12:38:17.019Z,5.32
2023-05-16T12:40:44.713Z,8.73
2023-05-16T12:43:23.098Z,12.43
2023-05-16T12:45:53.072Z,9.57
2023-05-16T12:48:22.004Z,8.40
2023-05-16T12:50:50.933Z,15.05
2023-05-16T12:53:18.948Z,8.02
2023-05-16T12:55:46.581Z,9.50
2023-05-16T12:58:14.195Z,9.30
2023-05-16T13:00:41.805Z,13.07
2023-05-16T13:03:09.235Z,4.53
2023-05-16T13:05:36.821Z,8.05
2023-05-16T13:08:04.876Z,7.38
2023-05-16T13:10:32.657Z,10.65
2023-05-16T13:13:00.472Z,5.93
2023-05-16T13:15:28.457Z,10.45
2023-05-16T13:17:56.464Z,6.03
2023-05-16T13:20:23.967Z,7.97
2023-05-16T13:22:51.419Z,5.25
2023-05-16T13:25:19.096Z,8.27
2023-05-16T13:27:46.466Z,8.02
2023-05-16T13:30:13.824Z,10.93
2023-05-16T13:32:42.805Z,5.55
2023-05-16T13:35:10.996Z,10.50
2023-05-16T13:37:38.597Z,6.47
2023-05-16T13:40:10.621Z,4.00
2023-05-16T13:42:38.711Z,7.97
2023-05-16T13:45:07.087Z,7.43
2023-05-16T13:47:34.566Z,10.75
2023-05-16T13:50:06.099Z,7.90
2023-05-16T13:52:35.043Z,6.07
2023-05-16T13:55:04.450Z,13.65
2023-05-16T13:57:33.011Z,7.35
2023-05-16T14:02:40.558Z,7.30
2023-05-16T14:05:09.590Z,6.53
2023-05-16T14:07:37.149Z,9.82
2023-05-16T14:10:07.078Z,9.45
2023-05-16T14:12:34.650Z,10.57
2023-05-16T14:15:02.059Z,7.88
2023-05-16T14:17:29.666Z,9.98
2023-05-16T14:19:57.347Z,8.38
2023-05-16T14:22:24.751Z,10.25
2023-05-16T14:24:52.037Z,10.90
2023-05-16T14:27:21.993Z,8.00
2023-05-16T14:29:49.295Z,8.43
2023-05-16T14:32:16.934Z,7.35
2023-05-16T14:34:44.541Z,8.90
2023-05-16T14:37:12.322Z,12.15
2023-05-16T14:39:41.985Z,8.48
2023-05-16T14:42:09.304Z,9.00
2023-05-16T14:44:36.658Z,12.75
2023-05-16T14:47:04.556Z,12.85
2023-05-16T14:49:32.529Z,13.05
2023-05-16T14:51:59.978Z,15.20
2023-05-16T14:54:27.713Z,9.68
2023-05-16T14:56:55.879Z,16.40
2023-05-16T14:59:23.199Z,13.38
2023-05-16T15:01:50.599Z,10.55
2023-05-16T15:04:17.981Z,12.32
2023-05-16T15:06:45.536Z,14.30
2023-05-16T15:09:13.562Z,7.00
2023-05-16T15:11:41.242Z,19.40
2023-05-16T15:14:08.638Z,12.00
2023-05-16T15:16:36.026Z,11.93
2023-05-16T15:19:03.586Z,9.30
2023-05-16T15:21:32.706Z,8.80
2023-05-16T15:24:00.859Z,12.02
2023-05-16T15:26:28.405Z,14.18
2023-05-16T15:28:55.738Z,10.48
2023-05-16T15:31:23.198Z,12.95
2023-05-16T15:33:50.690Z,19.27
2023-05-16T15:36:18.323Z,10.13
2023-05-16T15:38:46.808Z,21.92
2023-05-16T15:41:26.925Z,14.52
2023-05-16T15:44:03.228Z,16.33
2023-05-16T15:46:33.378Z,16.10
2023-05-16T15:49:01.169Z,20.27
2023-05-16T15:51:28.551Z,13.70
2023-05-16T15:53:55.909Z,17.90
2023-05-16T15:56:23.309Z,11.98
2023-05-16T15:58:50.821Z,14.25
2023-05-16T16:01:18.377Z,14.82
2023-05-16T16:03:46.407Z,14.60
2023-05-16T16:06:14.152Z,14.45
2023-05-16T16:08:41.456Z,11.75
2023-05-16T16:11:09.302Z,17.95
2023-05-16T16:13:36.871Z,20.60
2023-05-16T16:16:04.445Z,18.15
2023-05-16T16:18:32.075Z,23.80
2023-05-16T16:20:59.466Z,11.90
2023-05-16T16:23:26.818Z,23.65
2023-05-16T16:25:54.377Z,16.77
2023-05-16T16:28:22.701Z,17.88
2023-05-16T16:30:50.775Z,22.15
2023-05-16T16:33:18.505Z,16.55
2023-05-16T16:35:46.158Z,17.52
2023-05-16T16:38:13.532Z,17.00
2023-05-16T16:40:41.623Z,21.02
2023-05-16T16:43:09.162Z,17.42
2023-05-16T16:45:36.600Z,16.58
2023-05-16T16:48:04.448Z,17.20
2023-05-16T16:50:32.812Z,20.67
2023-05-16T16:53:04.240Z,26.65
2023-05-16T16:55:31.615Z,16.92
2023-05-16T16:57:58.985Z,21.02
2023-05-16T17:00:26.343Z,15.38
2023-05-16T17:02:54.271Z,18.05
2023-05-16T17:05:21.680Z,16.60
2023-05-16T17:07:48.956Z,19.13
2023-05-16T17:10:17.306Z,15.05
2023-05-16T17:12:49.236Z,23.05
2023-05-16T17:15:19.846Z,19.88
2023-05-16T17:17:49.584Z,21.38
2023-05-16T17:20:17.150Z,20.13
2023-05-16T17:22:46.156Z,15.75
2023-05-16T17:25:13.449Z,15.32
2023-05-16T17:27:41.323Z,16.27
2023-05-16T17:30:10.499Z,17.30
2023-05-16T17:32:39.729Z,21.77
2023-05-16T17:35:07.476Z,21.00
2023-05-16T17:37:34.839Z,21.08
2023-05-16T17:40:02.288Z,19.10
2023-05-16T17:42:29.642Z,17.90
2023-05-16T17:44:57.150Z,14.30
2023-05-16T17:47:25.668Z,23.63
2023-05-16T17:49:53.647Z,20.30
2023-05-16T17:52:22.159Z,17.05
2023-05-16T17:54:49.626Z,19.38
2023-05-16T17:57:16.914Z,20.25
2023-05-16T17:59:44.303Z,25.40
2023-05-16T18:02:15.238Z,20.77
2023-05-16T18:04:43.272Z,15.32
2023-05-16T18:07:10.621Z,22.38
2023-05-16T18:09:38.637Z,19.63
2023-05-16T18:12:07.147Z,17.35
2023-05-16T18:14:34.495Z,25.75
2023-05-16T18:17:02.036Z,22.95
2023-05-16T18:19:30.826Z,17.30
2023-05-16T18:22:00.015Z,27.77
2023-05-16T18:24:27.433Z,13.27
2023-05-16T18:26:54.869Z,13.35
2023-05-16T18:29:23.581Z,14.27
2023-05-16T18:31:51.189Z,16.60
2023-05-16T18:34:18.598Z,15.43
2023-05-16T18:36:45.945Z,19.85
2023-05-16T18:39:13.583Z,15.15
2023-05-16T18:41:41.265Z,22.40
2023-05-16T18:44:08.598Z,20.73
2023-05-16T18:46:36.268Z,19.38
2023-05-16T18:49:03.757Z,25.15
2023-05-16T18:51:32.263Z,24.45
2023-05-16T18:54:00.112Z,23.38
2023-05-16T18:56:27.646Z,22.23
2023-05-16T18:58:55.246Z,23.90
2023-05-16T19:01:23.318Z,21.65
2023-05-16T19:03:50.742Z,16.85
2023-05-16T19:06:18.425Z,14.93
2023-05-16T19:08:47.874Z,14.07
2023-05-16T19:11:17.748Z,14.27
2023-05-16T19:13:45.662Z,15.95
2023-05-16T19:16:13.810Z,18.70
2023-05-16T19:18:41.457Z,15.43
2023-05-16T19:21:11.149Z,11.00
2023-05-16T19:23:38.991Z,23.08
2023-05-16T19:26:06.168Z,14.55
2023-05-16T19:28:34.591Z,21.92
2023-05-16T19:31:01.918Z,21.27
2023-05-16T19:33:29.576Z,26.85
2023-05-16T19:35:57.890Z,15.35
2023-05-16T19:38:26.229Z,21.13
2023-05-16T19:40:53.804Z,20.35
2023-05-16T19:43:21.684Z,20.10
2023-05-16T19:45:49.269Z,16.85
2023-05-16T19:48:17.472Z,22.17
2023-05-16T19:50:44.923Z,15.35
2023-05-16T19:53:12.457Z,24.95
2023-05-16T19:55:40.301Z,19.98
2023-05-16T19:58:08.191Z,20.75
2023-05-16T20:00:38.050Z,25.13
2023-05-16T20:03:05.635Z,16.50
2023-05-16T20:05:34.025Z,22.27
2023-05-16T20:08:02.716Z,21.10
2023-05-16T20:10:31.248Z,21.77
2023-05-16T20:12:58.656Z,17.92
2023-05-16T20:15:28.739Z,21.08
2023-05-16T20:17:56.896Z,15.73
2023-05-16T20:20:24.936Z,19.05
2023-05-16T20:22:52.459Z,21.40
2023-05-16T20:25:19.891Z,25.73
2023-05-16T20:27:47.437Z,21.20
2023-05-16T20:30:15.058Z,24.40
2023-05-16T20:32:42.553Z,27.52
2023-05-16T20:35:13.507Z,22.48
2023-05-16T20:37:41.350Z,13.40
2023-05-16T20:40:09.482Z,15.82
2023-05-16T20:42:36.943Z,23.92
2023-05-16T20:45:06.238Z,20.52
2023-05-16T20:47:33.886Z,18.10
2023-05-16T20:50:01.839Z,21.88
2023-05-16T20:52:29.284Z,20.13
2023-05-16T20:54:58.532Z,27.17
2023-05-16T20:57:28.732Z,20.42
2023-05-16T20:59:56.816Z,16.02
2023-05-16T21:02:24.258Z,25.60
2023-05-16T21:04:52.016Z,22.40
2023-05-16T21:07:20.948Z,19.67
2023-05-16T21:09:48.925Z,16.77
2023-05-16T21:12:16.382Z,17.73
2023-05-16T21:14:46.693Z,17.63
2023-05-16T21:17:14.090Z,23.67
2023-05-16T21:19:41.632Z,20.13
2023-05-16T21:22:09.122Z,25.65
2023-05-16T21:24:37.642Z,18.25
2023-05-16T21:27:05.400Z,16.88
2023-05-16T21:29:32.901Z,18.38
2023-05-16T21:32:00.544Z,18.27
2023-05-16T21:34:28.023Z,31.20
2023-05-16T21:36:55.655Z,26.77
2023-05-16T21:39:23.031Z,26.30
2023-05-16T21:41:50.460Z,24.98
2023-05-16T21:44:18.526Z,29.40
2023-05-16T21:46:46.142Z,21.48
2023-05-16T21:49:13.605Z,29.60
2023-05-16T21:51:41.251Z,26.77
2023-05-16T21:54:08.778Z,26.08
2023-05-16T21:56:36.229Z,27.73
2023-05-16T21:59:04.096Z,24.77
2023-05-16T22:01:31.721Z,34.63
2023-05-16T22:03:59.444Z,27.20
2023-05-16T22:06:27.095Z,27.25
2023-05-16T22:08:55.149Z,21.25
2023-05-16T22:11:22.673Z,32.35
2023-05-16T22:13:50.848Z,23.23
2023-05-16T22:16:18.812Z,24.30
2023-05-16T22:18:46.484Z,28.27
2023-05-16T22:21:16.308Z,29.13
2023-05-16T22:23:43.834Z,23.67
2023-05-16T22:26:11.350Z,26.67
2023-05-16T22:28:38.751Z,27.95
2023-05-16T22:31:06.404Z,31.23
2023-05-16T22:33:33.952Z,31.33
2023-05-16T22:36:03.180Z,34.40
2023-05-16T22:38:31.921Z,32.22
2023-05-16T22:40:59.491Z,49.67
2023-05-16T22:43:26.934Z,32.10
2023-05-16T22:45:54.346Z,31.38
2023-05-16T22:48:21.728Z,39.88
2023-05-16T22:50:49.259Z,28.10
2023-05-16T22:53:16.655Z,27.63
2023-05-16T22:55:44.162Z,29.83
2023-05-16T22:58:11.572Z,33.50
2023-05-16T23:00:39.104Z,33.95
2023-05-16T23:03:06.566Z,29.58
2023-05-16T23:05:34.114Z,26.10
2023-05-16T23:08:02.508Z,28.83
2023-05-16T23:10:30.391Z,31.42
2023-05-16T23:12:57.817Z,27.88
2023-05-16T23:15:25.450Z,32.10
2023-05-16T23:17:53.035Z,32.83
2023-05-16T23:20:20.804Z,29.00
2023-05-16T23:22:48.494Z,21.95
2023-05-16T23:25:15.998Z,35.05
2023-05-16T23:27:43.520Z,22.95
2023-05-16T23:30:11.445Z,36.47
2023-05-16T23:32:38.938Z,27.95
2023-05-16T23:35:06.901Z,25.73
2023-05-16T23:37:34.462Z,25.27
2023-05-16T23:40:01.827Z,33.17
2023-05-16T23:42:29.189Z,29.23
2023-05-16T23:44:56.648Z,43.50
2023-05-16T23:47:24.378Z,30.30
2023-05-16T23:49:51.774Z,31.70
2023-05-16T23:52:19.173Z,28.80
2023-05-16T23:54:46.695Z,31.05
2023-05-16T23:57:14.025Z,30.27
2023-05-16T23:59:41.651Z,40.15
